sensor_id;sensor_type;location;lat;lon;timestamp;pressure;altitude;pressure_sealevel;temperature;humidity
28927;BME280;16038;47.692;9.400;2022-07-29T00:00:26;96564.41;;;16.88;100.00
28927;BME280;16038;47.692;9.400;2022-07-29T00:02:51;96558.81;;;16.95;100.00
28927;BME280;16038;47.692;9.400;2022-07-29T00:05:17;96568.66;;;16.96;100.00
28927;BME280;16038;47.692;9.400;2022-07-29T00:07:43;96566.59;;;17.07;100.00
28927;BME280;16038;47.692;9.400;2022-07-29T00:10:08;96570.69;;;16.92;100.00
28927;BME280;16038;47.692;9.400;2022-07-29T00:12:34;96568.41;;;16.83;100.00
28927;BME280;16038;47.692;9.400;2022-07-29T00:14:59;96564.81;;;16.86;100.00
28927;BME280;16038;47.692;9.400;2022-07-29T00:17:24;96573.88;;;16.90;100.00
28927;BME280;16038;47.692;9.400;2022-07-29T00:19:51;96565.59;;;16.87;100.00
28927;BME280;16038;47.692;9.400;2022-07-29T00:22:16;96568.75;;;16.89;100.00
28927;BME280;16038;47.692;9.400;2022-07-29T00:24:42;96563.63;;;16.87;100.00
28927;BME280;16038;47.692;9.400;2022-07-29T00:27:07;96562.84;;;16.87;100.00
28927;BME280;16038;47.692;9.400;2022-07-29T00:29:32;96570.72;;;16.88;100.00
28927;BME280;16038;47.692;9.400;2022-07-29T00:31:58;96557.25;;;16.90;100.00
28927;BME280;16038;47.692;9.400;2022-07-29T00:34:23;96569.53;;;16.89;100.00
28927;BME280;16038;47.692;9.400;2022-07-29T00:37:07;96565.19;;;16.88;100.00
28927;BME280;16038;47.692;9.400;2022-07-29T00:39:32;96546.66;;;16.85;100.00
28927;BME280;16038;47.692;9.400;2022-07-29T00:41:58;96547.47;;;16.82;100.00
28927;BME280;16038;47.692;9.400;2022-07-29T00:44:23;96546.78;;;16.71;100.00
28927;BME280;16038;47.692;9.400;2022-07-29T00:46:49;96539.34;;;16.64;100.00
28927;BME280;16038;47.692;9.400;2022-07-29T00:49:14;96546.44;;;16.65;100.00
28927;BME280;16038;47.692;9.400;2022-07-29T00:51:40;96538.94;;;16.66;100.00
28927;BME280;16038;47.692;9.400;2022-07-29T00:54:05;96535.78;;;16.63;100.00
28927;BME280;16038;47.692;9.400;2022-07-29T00:56:33;96532.72;;;16.54;100.00
28927;BME280;16038;47.692;9.400;2022-07-29T00:58:59;96538.25;;;16.54;100.00
28927;BME280;16038;47.692;9.400;2022-07-29T01:01:25;96536.28;;;16.55;100.00
28927;BME280;16038;47.692;9.400;2022-07-29T01:03:50;96536.66;;;16.57;100.00
28927;BME280;16038;47.692;9.400;2022-07-29T01:06:17;96535.84;;;16.56;100.00
28927;BME280;16038;47.692;9.400;2022-07-29T01:08:44;96533.09;;;16.56;100.00
28927;BME280;16038;47.692;9.400;2022-07-29T01:11:10;96530.75;;;16.55;100.00
28927;BME280;16038;47.692;9.400;2022-07-29T01:13:36;96522.50;;;16.51;100.00
28927;BME280;16038;47.692;9.400;2022-07-29T01:16:15;96528.41;;;16.53;100.00
28927;BME280;16038;47.692;9.400;2022-07-29T01:18:46;96525.63;;;16.53;100.00
28927;BME280;16038;47.692;9.400;2022-07-29T01:24:11;96518.53;;;16.52;100.00
28927;BME280;16038;47.692;9.400;2022-07-29T01:26:45;96521.69;;;16.51;100.00
28927;BME280;16038;47.692;9.400;2022-07-29T01:29:31;96516.94;;;16.55;100.00
28927;BME280;16038;47.692;9.400;2022-07-29T01:32:22;96506.22;;;16.60;100.00
28927;BME280;16038;47.692;9.400;2022-07-29T01:34:58;96510.16;;;16.59;100.00
28927;BME280;16038;47.692;9.400;2022-07-29T01:37:36;96503.47;;;16.57;100.00
28927;BME280;16038;47.692;9.400;2022-07-29T01:40:05;96504.34;;;16.50;100.00
28927;BME280;16038;47.692;9.400;2022-07-29T01:42:44;96500.41;;;16.48;100.00
28927;BME280;16038;47.692;9.400;2022-07-29T01:45:32;96495.25;;;16.50;100.00
28927;BME280;16038;47.692;9.400;2022-07-29T01:50:35;96497.53;;;16.58;100.00
28927;BME280;16038;47.692;9.400;2022-07-29T01:53:07;96491.97;;;16.62;100.00
28927;BME280;16038;47.692;9.400;2022-07-29T01:55:40;96496.69;;;16.61;100.00
28927;BME280;16038;47.692;9.400;2022-07-29T01:58:08;96499.50;;;16.58;100.00
28927;BME280;16038;47.692;9.400;2022-07-29T02:00:34;96497.53;;;16.58;100.00
28927;BME280;16038;47.692;9.400;2022-07-29T02:03:05;96494.38;;;16.56;100.00
28927;BME280;16038;47.692;9.400;2022-07-29T02:05:34;96501.50;;;16.57;100.00
28927;BME280;16038;47.692;9.400;2022-07-29T02:08:01;96501.13;;;16.55;100.00
28927;BME280;16038;47.692;9.400;2022-07-29T02:10:29;96492.88;;;16.52;100.00
28927;BME280;16038;47.692;9.400;2022-07-29T02:12:57;96496.41;;;16.52;100.00
28927;BME280;16038;47.692;9.400;2022-07-29T02:15:24;96496.81;;;16.51;100.00
28927;BME280;16038;47.692;9.400;2022-07-29T02:17:55;96498.41;;;16.52;100.00
28927;BME280;16038;47.692;9.400;2022-07-29T02:20:22;96498.34;;;16.55;100.00
28927;BME280;16038;47.692;9.400;2022-07-29T02:22:48;96497.94;;;16.57;100.00
28927;BME280;16038;47.692;9.400;2022-07-29T02:25:15;96494.00;;;16.54;100.00
28927;BME280;16038;47.692;9.400;2022-07-29T02:27:42;96502.56;;;16.67;100.00
28927;BME280;16038;47.692;9.400;2022-07-29T02:30:08;96500.34;;;16.93;100.00
28927;BME280;16038;47.692;9.400;2022-07-29T02:32:37;96501.56;;;16.88;100.00
28927;BME280;16038;47.692;9.400;2022-07-29T02:35:03;96493.59;;;16.56;100.00
28927;BME280;16038;47.692;9.400;2022-07-29T02:37:30;96500.44;;;16.44;100.00
28927;BME280;16038;47.692;9.400;2022-07-29T02:39:57;96491.88;;;16.31;100.00
28927;BME280;16038;47.692;9.400;2022-07-29T02:42:24;96486.81;;;16.26;100.00
28927;BME280;16038;47.692;9.400;2022-07-29T02:44:51;96492.38;;;16.22;100.00
28927;BME280;16038;47.692;9.400;2022-07-29T02:47:55;96486.84;;;16.22;100.00
28927;BME280;16038;47.692;9.400;2022-07-29T02:50:33;96490.50;;;16.50;100.00
28927;BME280;16038;47.692;9.400;2022-07-29T02:53:04;96490.56;;;16.81;100.00
28927;BME280;16038;47.692;9.400;2022-07-29T02:55:37;96493.56;;;16.97;100.00
28927;BME280;16038;47.692;9.400;2022-07-29T02:58:17;96497.44;;;17.04;100.00
28927;BME280;16038;47.692;9.400;2022-07-29T03:00:49;96501.59;;;17.19;100.00
28927;BME280;16038;47.692;9.400;2022-07-29T03:03:18;96504.63;;;17.28;100.00
28927;BME280;16038;47.692;9.400;2022-07-29T03:05:44;96505.75;;;17.34;100.00
28927;BME280;16038;47.692;9.400;2022-07-29T03:08:11;96501.44;;;17.30;100.00
28927;BME280;16038;47.692;9.400;2022-07-29T03:10:43;96490.75;;;17.32;100.00
28927;BME280;16038;47.692;9.400;2022-07-29T03:13:09;96502.09;;;17.41;100.00
28927;BME280;16038;47.692;9.400;2022-07-29T03:15:36;96494.63;;;17.38;100.00
28927;BME280;16038;47.692;9.400;2022-07-29T03:18:03;96493.47;;;17.35;100.00
28927;BME280;16038;47.692;9.400;2022-07-29T03:20:28;96488.31;;;17.07;100.00
28927;BME280;16038;47.692;9.400;2022-07-29T03:22:54;96485.81;;;16.81;100.00
28927;BME280;16038;47.692;9.400;2022-07-29T03:25:20;96485.31;;;16.94;100.00
28927;BME280;16038;47.692;9.400;2022-07-29T03:27:47;96497.41;;;17.07;100.00
28927;BME280;16038;47.692;9.400;2022-07-29T03:30:13;96494.59;;;17.11;100.00
28927;BME280;16038;47.692;9.400;2022-07-29T03:32:40;96499.03;;;17.01;100.00
28927;BME280;16038;47.692;9.400;2022-07-29T03:35:06;96502.41;;;16.81;100.00
28927;BME280;16038;47.692;9.400;2022-07-29T03:37:33;96498.63;;;16.68;100.00
28927;BME280;16038;47.692;9.400;2022-07-29T03:40:00;96503.69;;;16.73;100.00
28927;BME280;16038;47.692;9.400;2022-07-29T03:42:30;96505.16;;;16.47;100.00
28927;BME280;16038;47.692;9.400;2022-07-29T03:44:58;96502.78;;;16.46;100.00
28927;BME280;16038;47.692;9.400;2022-07-29T03:47:27;96501.56;;;16.50;100.00
28927;BME280;16038;47.692;9.400;2022-07-29T03:50:05;96503.69;;;16.73;100.00
28927;BME280;16038;47.692;9.400;2022-07-29T03:52:30;96509.44;;;16.52;100.00
28927;BME280;16038;47.692;9.400;2022-07-29T03:54:56;96516.50;;;16.56;100.00
28927;BME280;16038;47.692;9.400;2022-07-29T03:57:24;96513.09;;;16.79;100.00
28927;BME280;16038;47.692;9.400;2022-07-29T03:59:53;96514.63;;;16.88;100.00
28927;BME280;16038;47.692;9.400;2022-07-29T04:02:19;96509.75;;;16.99;100.00
28927;BME280;16038;47.692;9.400;2022-07-29T04:04:45;96517.63;;;17.00;100.00
28927;BME280;16038;47.692;9.400;2022-07-29T04:07:14;96510.75;;;17.12;100.00
28927;BME280;16038;47.692;9.400;2022-07-29T04:09:40;96497.13;;;16.98;100.00
28927;BME280;16038;47.692;9.400;2022-07-29T04:12:06;96495.16;;;16.60;100.00
28927;BME280;16038;47.692;9.400;2022-07-29T04:14:32;96501.06;;;16.21;100.00
28927;BME280;16038;47.692;9.400;2022-07-29T04:16:59;96495.94;;;16.19;100.00
28927;BME280;16038;47.692;9.400;2022-07-29T04:19:24;96500.09;;;16.38;100.00
28927;BME280;16038;47.692;9.400;2022-07-29T04:21:50;96505.19;;;16.43;100.00
28927;BME280;16038;47.692;9.400;2022-07-29T04:24:16;96508.50;;;16.69;100.00
28927;BME280;16038;47.692;9.400;2022-07-29T04:26:42;96515.97;;;17.07;100.00
28927;BME280;16038;47.692;9.400;2022-07-29T04:29:07;96522.09;;;17.25;100.00
28927;BME280;16038;47.692;9.400;2022-07-29T04:31:32;96528.13;;;17.47;100.00
28927;BME280;16038;47.692;9.400;2022-07-29T04:33:58;96528.38;;;17.56;100.00
28927;BME280;16038;47.692;9.400;2022-07-29T04:36:23;96527.59;;;17.56;100.00
28927;BME280;16038;47.692;9.400;2022-07-29T04:38:49;96533.94;;;17.56;100.00
28927;BME280;16038;47.692;9.400;2022-07-29T04:41:14;96542.22;;;17.56;100.00
28927;BME280;16038;47.692;9.400;2022-07-29T04:43:39;96534.78;;;17.50;100.00
28927;BME280;16038;47.692;9.400;2022-07-29T04:46:06;96536.84;;;17.46;100.00
28927;BME280;16038;47.692;9.400;2022-07-29T04:48:31;96536.97;;;17.35;100.00
28927;BME280;16038;47.692;9.400;2022-07-29T04:50:57;96537.25;;;17.44;100.00
28927;BME280;16038;47.692;9.400;2022-07-29T04:53:22;96543.00;;;17.57;100.00
28927;BME280;16038;47.692;9.400;2022-07-29T04:55:48;96552.22;;;17.77;100.00
28927;BME280;16038;47.692;9.400;2022-07-29T04:58:13;96550.13;;;17.89;100.00
28927;BME280;16038;47.692;9.400;2022-07-29T05:00:39;96543.47;;;17.52;100.00
28927;BME280;16038;47.692;9.400;2022-07-29T05:03:05;96538.53;;;17.67;100.00
28927;BME280;16038;47.692;9.400;2022-07-29T05:05:30;96539.78;;;17.31;100.00
28927;BME280;16038;47.692;9.400;2022-07-29T05:07:56;96536.03;;;16.84;100.00
28927;BME280;16038;47.692;9.400;2022-07-29T05:10:22;96529.28;;;16.85;100.00
28927;BME280;16038;47.692;9.400;2022-07-29T05:12:47;96533.06;;;17.02;100.00
28927;BME280;16038;47.692;9.400;2022-07-29T05:15:13;96537.88;;;16.94;100.00
28927;BME280;16038;47.692;9.400;2022-07-29T05:17:38;96537.94;;;16.87;100.00
28927;BME280;16038;47.692;9.400;2022-07-29T05:20:05;96537.75;;;17.05;100.00
28927;BME280;16038;47.692;9.400;2022-07-29T05:22:30;96542.47;;;17.38;100.00
28927;BME280;16038;47.692;9.400;2022-07-29T05:24:56;96546.19;;;17.55;100.00
28927;BME280;16038;47.692;9.400;2022-07-29T05:27:21;96547.97;;;17.69;100.00
28927;BME280;16038;47.692;9.400;2022-07-29T05:29:47;96550.28;;;17.74;100.00
28927;BME280;16038;47.692;9.400;2022-07-29T05:32:12;96556.09;;;17.84;100.00
28927;BME280;16038;47.692;9.400;2022-07-29T05:34:38;96566.78;;;17.85;100.00
28927;BME280;16038;47.692;9.400;2022-07-29T05:37:03;96561.50;;;17.94;100.00
28927;BME280;16038;47.692;9.400;2022-07-29T05:39:29;96560.38;;;17.92;100.00
28927;BME280;16038;47.692;9.400;2022-07-29T05:41:54;96557.34;;;17.79;100.00
28927;BME280;16038;47.692;9.400;2022-07-29T05:44:19;96550.88;;;17.31;100.00
28927;BME280;16038;47.692;9.400;2022-07-29T05:46:45;96546.38;;;17.10;100.00
28927;BME280;16038;47.692;9.400;2022-07-29T05:49:10;96548.81;;;16.63;100.00
28927;BME280;16038;47.692;9.400;2022-07-29T05:51:36;96543.03;;;16.50;100.00
28927;BME280;16038;47.692;9.400;2022-07-29T05:54:01;96540.34;;;16.43;100.00
28927;BME280;16038;47.692;9.400;2022-07-29T05:56:27;96542.28;;;16.46;100.00
28927;BME280;16038;47.692;9.400;2022-07-29T05:58:53;96545.78;;;16.50;100.00
28927;BME280;16038;47.692;9.400;2022-07-29T06:01:18;96548.63;;;16.43;100.00
28927;BME280;16038;47.692;9.400;2022-07-29T06:03:44;96551.97;;;16.65;100.00
28927;BME280;16038;47.692;9.400;2022-07-29T06:06:10;96551.41;;;16.81;100.00
28927;BME280;16038;47.692;9.400;2022-07-29T06:08:36;96540.84;;;17.10;100.00
28927;BME280;16038;47.692;9.400;2022-07-29T06:11:03;96540.00;;;17.13;100.00
28927;BME280;16038;47.692;9.400;2022-07-29T06:13:29;96540.78;;;17.14;100.00
28927;BME280;16038;47.692;9.400;2022-07-29T06:15:55;96538.38;;;17.50;100.00
28927;BME280;16038;47.692;9.400;2022-07-29T06:18:21;96545.00;;;17.84;100.00
28927;BME280;16038;47.692;9.400;2022-07-29T06:20:49;96555.19;;;17.94;100.00
28927;BME280;16038;47.692;9.400;2022-07-29T06:23:14;96562.66;;;17.97;100.00
28927;BME280;16038;47.692;9.400;2022-07-29T06:25:40;96562.34;;;18.19;100.00
28927;BME280;16038;47.692;9.400;2022-07-29T06:28:06;96565.84;;;17.95;100.00
28927;BME280;16038;47.692;9.400;2022-07-29T06:30:31;96555.91;;;17.40;100.00
28927;BME280;16038;47.692;9.400;2022-07-29T06:32:57;96561.53;;;17.33;100.00
28927;BME280;16038;47.692;9.400;2022-07-29T06:35:22;96559.97;;;17.59;100.00
28927;BME280;16038;47.692;9.400;2022-07-29T06:37:48;96577.75;;;17.92;100.00
28927;BME280;16038;47.692;9.400;2022-07-29T06:40:13;96581.72;;;17.91;100.00
28927;BME280;16038;47.692;9.400;2022-07-29T06:42:57;96583.78;;;17.84;100.00
28927;BME280;16038;47.692;9.400;2022-07-29T06:45:22;96578.97;;;17.61;100.00
28927;BME280;16038;47.692;9.400;2022-07-29T06:47:49;96575.09;;;17.85;100.00
28927;BME280;16038;47.692;9.400;2022-07-29T06:50:14;96584.13;;;18.17;100.00
28927;BME280;16038;47.692;9.400;2022-07-29T06:52:40;96578.78;;;18.02;100.00
28927;BME280;16038;47.692;9.400;2022-07-29T06:55:06;96591.63;;;17.92;100.00
28927;BME280;16038;47.692;9.400;2022-07-29T06:57:32;96578.34;;;18.31;100.00
28927;BME280;16038;47.692;9.400;2022-07-29T06:59:57;96594.06;;;18.14;100.00
28927;BME280;16038;47.692;9.400;2022-07-29T07:02:23;96587.88;;;18.30;100.00
28927;BME280;16038;47.692;9.400;2022-07-29T07:04:48;96590.38;;;19.15;100.00
28927;BME280;16038;47.692;9.400;2022-07-29T07:07:14;96594.59;;;20.00;100.00
28927;BME280;16038;47.692;9.400;2022-07-29T07:09:39;96594.03;;;19.32;100.00
28927;BME280;16038;47.692;9.400;2022-07-29T07:12:05;96597.00;;;19.61;100.00
28927;BME280;16038;47.692;9.400;2022-07-29T07:14:31;96597.88;;;19.18;100.00
28927;BME280;16038;47.692;9.400;2022-07-29T07:16:56;96588.59;;;19.85;100.00
28927;BME280;16038;47.692;9.400;2022-07-29T07:19:22;96594.16;;;19.85;100.00
28927;BME280;16038;47.692;9.400;2022-07-29T07:21:47;96599.22;;;20.07;100.00
28927;BME280;16038;47.692;9.400;2022-07-29T07:24:13;96602.84;;;20.03;100.00
28927;BME280;16038;47.692;9.400;2022-07-29T07:26:38;96603.25;;;20.38;100.00
28927;BME280;16038;47.692;9.400;2022-07-29T07:29:05;96606.28;;;21.23;100.00
28927;BME280;16038;47.692;9.400;2022-07-29T07:31:31;96596.47;;;22.02;100.00
28927;BME280;16038;47.692;9.400;2022-07-29T07:33:56;96609.31;;;22.51;99.94
28927;BME280;16038;47.692;9.400;2022-07-29T07:36:22;96607.97;;;22.56;100.00
28927;BME280;16038;47.692;9.400;2022-07-29T07:38:47;96611.50;;;22.82;99.26
28927;BME280;16038;47.692;9.400;2022-07-29T07:41:12;96617.19;;;23.26;96.51
28927;BME280;16038;47.692;9.400;2022-07-29T07:43:38;96631.00;;;23.87;92.41
28927;BME280;16038;47.692;9.400;2022-07-29T07:46:04;96634.63;;;23.74;92.84
28927;BME280;16038;47.692;9.400;2022-07-29T07:48:29;96630.88;;;24.31;89.48
28927;BME280;16038;47.692;9.400;2022-07-29T07:50:55;96638.56;;;24.89;85.61
28927;BME280;16038;47.692;9.400;2022-07-29T07:53:21;96639.81;;;24.88;84.65
28927;BME280;16038;47.692;9.400;2022-07-29T07:55:46;96635.72;;;24.61;85.18
28927;BME280;16038;47.692;9.400;2022-07-29T07:58:11;96644.72;;;24.25;87.12
28927;BME280;16038;47.692;9.400;2022-07-29T08:00:37;96653.47;;;24.36;87.62
28927;BME280;16038;47.692;9.400;2022-07-29T08:03:02;96650.34;;;24.34;86.82
28927;BME280;16038;47.692;9.400;2022-07-29T08:05:28;96649.53;;;23.93;90.19
28927;BME280;16038;47.692;9.400;2022-07-29T08:07:54;96652.91;;;23.88;90.98
28927;BME280;16038;47.692;9.400;2022-07-29T08:10:19;96661.22;;;23.79;92.01
28927;BME280;16038;47.692;9.400;2022-07-29T08:13:05;96654.88;;;24.41;86.54
28927;BME280;16038;47.692;9.400;2022-07-29T08:15:31;96648.78;;;23.58;91.15
28927;BME280;16038;47.692;9.400;2022-07-29T08:17:57;96644.91;;;23.99;88.35
28927;BME280;16038;47.692;9.400;2022-07-29T08:20:22;96650.16;;;24.29;86.24
28927;BME280;16038;47.692;9.400;2022-07-29T08:22:48;96645.94;;;24.15;87.52
28927;BME280;16038;47.692;9.400;2022-07-29T08:25:13;96653.59;;;24.64;84.61
28927;BME280;16038;47.692;9.400;2022-07-29T08:27:39;96651.81;;;24.89;82.47
28927;BME280;16038;47.692;9.400;2022-07-29T08:30:05;96648.75;;;25.42;79.92
28927;BME280;16038;47.692;9.400;2022-07-29T08:32:30;96650.72;;;25.05;81.12
28927;BME280;16038;47.692;9.400;2022-07-29T08:34:56;96649.06;;;24.26;86.67
28927;BME280;16038;47.692;9.400;2022-07-29T08:37:22;96651.50;;;24.96;81.34
28927;BME280;16038;47.692;9.400;2022-07-29T08:39:47;96654.66;;;24.57;84.14
28927;BME280;16038;47.692;9.400;2022-07-29T08:42:13;96639.94;;;24.75;81.52
28927;BME280;16038;47.692;9.400;2022-07-29T08:44:39;96652.31;;;25.15;80.09
28927;BME280;16038;47.692;9.400;2022-07-29T08:47:05;96641.88;;;23.84;86.09
28927;BME280;16038;47.692;9.400;2022-07-29T08:49:33;96647.31;;;23.88;86.46
28927;BME280;16038;47.692;9.400;2022-07-29T08:51:59;96637.88;;;24.26;84.31
28927;BME280;16038;47.692;9.400;2022-07-29T08:54:25;96642.03;;;24.21;84.65
28927;BME280;16038;47.692;9.400;2022-07-29T08:56:51;96640.84;;;24.32;84.13
28927;BME280;16038;47.692;9.400;2022-07-29T08:59:19;96654.78;;;24.13;84.08
28927;BME280;16038;47.692;9.400;2022-07-29T09:01:46;96652.59;;;23.86;85.92
28927;BME280;16038;47.692;9.400;2022-07-29T09:04:13;96659.91;;;23.71;88.43
28927;BME280;16038;47.692;9.400;2022-07-29T09:06:45;96659.53;;;23.37;90.92
28927;BME280;16038;47.692;9.400;2022-07-29T09:09:13;96672.84;;;23.20;93.45
28927;BME280;16038;47.692;9.400;2022-07-29T09:11:39;96668.47;;;22.71;96.73
28927;BME280;16038;47.692;9.400;2022-07-29T09:14:05;96669.78;;;22.67;97.01
28927;BME280;16038;47.692;9.400;2022-07-29T09:16:48;96678.72;;;22.49;97.20
28927;BME280;16038;47.692;9.400;2022-07-29T09:19:28;96676.97;;;22.29;97.42
28927;BME280;16038;47.692;9.400;2022-07-29T09:21:56;96675.94;;;22.49;97.37
28927;BME280;16038;47.692;9.400;2022-07-29T09:24:42;96683.66;;;22.58;97.65
28927;BME280;16038;47.692;9.400;2022-07-29T09:27:17;96677.53;;;22.50;97.33
28927;BME280;16038;47.692;9.400;2022-07-29T09:29:44;96681.09;;;22.50;98.65
28927;BME280;16038;47.692;9.400;2022-07-29T09:32:10;96685.00;;;22.66;97.02
28927;BME280;16038;47.692;9.400;2022-07-29T09:34:38;96690.38;;;22.60;99.58
28927;BME280;16038;47.692;9.400;2022-07-29T09:37:04;96678.28;;;22.50;99.23
28927;BME280;16038;47.692;9.400;2022-07-29T09:39:40;96686.13;;;22.43;100.00
28927;BME280;16038;47.692;9.400;2022-07-29T09:42:27;96691.41;;;22.11;100.00
28927;BME280;16038;47.692;9.400;2022-07-29T09:44:53;96684.34;;;21.94;100.00
28927;BME280;16038;47.692;9.400;2022-07-29T09:47:19;96699.25;;;21.87;100.00
28927;BME280;16038;47.692;9.400;2022-07-29T09:49:55;96692.44;;;21.75;100.00
28927;BME280;16038;47.692;9.400;2022-07-29T09:52:23;96687.31;;;21.74;100.00
28927;BME280;16038;47.692;9.400;2022-07-29T09:54:51;96690.00;;;21.77;100.00
28927;BME280;16038;47.692;9.400;2022-07-29T09:57:25;96681.91;;;21.54;100.00
28927;BME280;16038;47.692;9.400;2022-07-29T10:00:08;96680.47;;;21.62;100.00
28927;BME280;16038;47.692;9.400;2022-07-29T10:02:35;96673.19;;;21.52;100.00
28927;BME280;16038;47.692;9.400;2022-07-29T10:05:03;96662.75;;;21.39;100.00
28927;BME280;16038;47.692;9.400;2022-07-29T10:07:46;96678.38;;;21.20;100.00
28927;BME280;16038;47.692;9.400;2022-07-29T10:10:29;96672.25;;;20.80;100.00
28927;BME280;16038;47.692;9.400;2022-07-29T10:12:57;96666.94;;;20.86;100.00
28927;BME280;16038;47.692;9.400;2022-07-29T10:15:24;96659.91;;;21.27;100.00
28927;BME280;16038;47.692;9.400;2022-07-29T10:17:51;96656.13;;;21.33;100.00
28927;BME280;16038;47.692;9.400;2022-07-29T10:22:42;96653.00;;;21.90;100.00
28927;BME280;16038;47.692;9.400;2022-07-29T10:25:10;96642.88;;;22.09;100.00
28927;BME280;16038;47.692;9.400;2022-07-29T10:27:36;96642.66;;;22.03;100.00
28927;BME280;16038;47.692;9.400;2022-07-29T10:30:03;96647.72;;;22.34;98.09
28927;BME280;16038;47.692;9.400;2022-07-29T10:38:50;96662.47;;;22.35;100.00
28927;BME280;16038;47.692;9.400;2022-07-29T10:41:06;96668.47;;;22.59;97.20
28927;BME280;16038;47.692;9.400;2022-07-29T10:43:52;96669.16;;;22.50;100.00
28927;BME280;16038;47.692;9.400;2022-07-29T10:46:19;96662.41;;;22.86;98.86
28927;BME280;16038;47.692;9.400;2022-07-29T10:49:05;96661.91;;;22.65;97.40
28927;BME280;16038;47.692;9.400;2022-07-29T10:52:08;96649.34;;;22.83;96.98
28927;BME280;16038;47.692;9.400;2022-07-29T10:59:38;96628.81;;;22.77;96.14
28927;BME280;16038;47.692;9.400;2022-07-29T11:04:59;96620.72;;;22.91;96.26
28927;BME280;16038;47.692;9.400;2022-07-29T11:07:26;96628.09;;;22.98;94.53
28927;BME280;16038;47.692;9.400;2022-07-29T11:15:08;96626.13;;;22.73;95.10
28927;BME280;16038;47.692;9.400;2022-07-29T11:23:29;96621.28;;;22.39;96.09
28927;BME280;16038;47.692;9.400;2022-07-29T11:28:48;96626.78;;;22.77;93.58
28927;BME280;16038;47.692;9.400;2022-07-29T11:31:16;96631.19;;;23.13;91.47
28927;BME280;16038;47.692;9.400;2022-07-29T11:33:43;96628.31;;;23.39;87.80
28927;BME280;16038;47.692;9.400;2022-07-29T11:36:11;96628.13;;;23.99;84.08
28927;BME280;16038;47.692;9.400;2022-07-29T11:38:38;96630.31;;;23.60;84.44
28927;BME280;16038;47.692;9.400;2022-07-29T11:41:25;96622.47;;;23.90;83.69
28927;BME280;16038;47.692;9.400;2022-07-29T11:43:57;96627.34;;;24.39;81.22
28927;BME280;16038;47.692;9.400;2022-07-29T11:46:45;96627.22;;;24.93;78.46
28927;BME280;16038;47.692;9.400;2022-07-29T11:49:12;96618.06;;;25.02;76.76
28927;BME280;16038;47.692;9.400;2022-07-29T11:51:38;96616.84;;;25.30;74.89
28927;BME280;16038;47.692;9.400;2022-07-29T11:54:05;96617.31;;;25.38;74.64
28927;BME280;16038;47.692;9.400;2022-07-29T11:56:34;96628.16;;;25.08;75.51
28927;BME280;16038;47.692;9.400;2022-07-29T11:59:05;96624.84;;;24.73;77.74
28927;BME280;16038;47.692;9.400;2022-07-29T12:01:31;96628.13;;;24.80;74.94
28927;BME280;16038;47.692;9.400;2022-07-29T12:04:07;96620.09;;;24.11;78.55
28927;BME280;16038;47.692;9.400;2022-07-29T12:06:33;96619.66;;;24.21;79.36
28927;BME280;16038;47.692;9.400;2022-07-29T12:08:59;96621.97;;;24.14;81.01
28927;BME280;16038;47.692;9.400;2022-07-29T12:11:25;96612.47;;;24.52;79.55
28927;BME280;16038;47.692;9.400;2022-07-29T12:13:51;96618.81;;;24.84;79.22
28927;BME280;16038;47.692;9.400;2022-07-29T12:16:17;96623.63;;;24.83;76.78
28927;BME280;16038;47.692;9.400;2022-07-29T12:18:54;96618.53;;;25.09;74.72
28927;BME280;16038;47.692;9.400;2022-07-29T12:21:20;96620.09;;;25.19;72.91
28927;BME280;16038;47.692;9.400;2022-07-29T12:23:52;96615.09;;;25.14;73.30
28927;BME280;16038;47.692;9.400;2022-07-29T12:26:18;96610.13;;;25.09;73.92
28927;BME280;16038;47.692;9.400;2022-07-29T12:28:43;96612.00;;;25.22;72.54
28927;BME280;16038;47.692;9.400;2022-07-29T12:31:15;96612.44;;;25.02;73.05
28927;BME280;16038;47.692;9.400;2022-07-29T12:33:41;96612.44;;;24.83;72.49
28927;BME280;16038;47.692;9.400;2022-07-29T12:36:07;96605.91;;;24.95;72.89
28927;BME280;16038;47.692;9.400;2022-07-29T12:38:37;96605.94;;;25.32;71.68
28927;BME280;16038;47.692;9.400;2022-07-29T12:41:05;96603.59;;;25.40;72.19
28927;BME280;16038;47.692;9.400;2022-07-29T12:43:31;96597.47;;;24.86;73.33
28927;BME280;16038;47.692;9.400;2022-07-29T12:45:56;96598.22;;;24.59;75.09
28927;BME280;16038;47.692;9.400;2022-07-29T12:48:35;96592.91;;;24.61;74.31
28927;BME280;16038;47.692;9.400;2022-07-29T12:51:02;96593.31;;;24.91;73.33
28927;BME280;16038;47.692;9.400;2022-07-29T12:53:28;96589.25;;;25.01;75.95
28927;BME280;16038;47.692;9.400;2022-07-29T12:55:56;96594.06;;;25.10;75.50
28927;BME280;16038;47.692;9.400;2022-07-29T12:58:36;96604.34;;;25.04;74.97
28927;BME280;16038;47.692;9.400;2022-07-29T13:01:13;96589.72;;;24.99;76.51
28927;BME280;16038;47.692;9.400;2022-07-29T13:03:58;96599.81;;;24.88;77.19
28927;BME280;16038;47.692;9.400;2022-07-29T13:06:43;96595.03;;;25.07;75.74
28927;BME280;16038;47.692;9.400;2022-07-29T13:09:14;96597.34;;;24.90;76.16
28927;BME280;16038;47.692;9.400;2022-07-29T13:11:51;96595.63;;;24.92;77.29
28927;BME280;16038;47.692;9.400;2022-07-29T13:17:04;96593.75;;;25.17;74.94
28927;BME280;16038;47.692;9.400;2022-07-29T13:22:04;96592.88;;;25.29;73.87
28927;BME280;16038;47.692;9.400;2022-07-29T13:24:30;96597.22;;;25.49;74.51
28927;BME280;16038;47.692;9.400;2022-07-29T13:26:55;96596.25;;;25.61;75.40
28927;BME280;16038;47.692;9.400;2022-07-29T13:29:21;96599.69;;;25.56;74.37
28927;BME280;16038;47.692;9.400;2022-07-29T13:31:46;96605.13;;;24.95;76.43
28927;BME280;16038;47.692;9.400;2022-07-29T13:34:11;96607.88;;;24.67;79.25
28927;BME280;16038;47.692;9.400;2022-07-29T13:36:37;96610.28;;;24.47;81.24
28927;BME280;16038;47.692;9.400;2022-07-29T13:39:03;96609.97;;;24.45;79.74